• Join FlightAware (Why Join?)
  • Login
  • US Flag 
06:17AM EST


 

Airport Tracker/Info


-or-


 

Live Flight TrackerFlight Track Log ✈ DAL6068 ✈ 13-Jun-2014 ✈ KBWI - KJFK

Flight Track Log - Related Links

Times and Time Zones

All times are in EDT time to prevent confusion due to time zone crossing. See the DAL6068 flight status page for this flight to view local times or setup timezone preferences in your user account.

Time Position Orientation Groundspeed Altitude Reporting Facility
EDT Latitude Longitude Course Direction KTS MPH feet Rate Location/Type
01:50PM 39.1667 -76.7000 90° East 166 191 1,300  Level Potomac TRACON
01:51PM 39.1333 -76.7000 180° South 243 280 3,000 1,680 Climbing Potomac TRACON
01:52PM 39.1000 -76.6000 113° Southeast 253 291 4,900 1,980 Climbing Potomac TRACON
01:53PM 39.0177 -76.3399 83° East  Level FlightAware Approximate
01:54PM 39.0306 -76.2107 83° East  Level FlightAware Approximate
01:55PM 39.0333 -76.0807 90° East  Level FlightAware Approximate
01:55PM 39.0397 -76.4175 113° Southeast 257 296 10,000  Level Washington Center
01:56PM 39.0153 -76.3208 108° East 262 302 11,700 1,680 Climbing Washington Center
01:57PM 39.0367 -76.2142 75° East 278 320 13,400 1,680 Climbing Washington Center
01:58PM 39.0914 -76.1078 56° Northeast 287 330 15,100 1,560 Climbing Washington Center
01:59PM 39.1481 -76.0144 52° Northeast 299 344 16,600 900 Climbing Washington Center
02:00PM 39.2047 -75.9103 55° Northeast 333 383 17,000 180 Climbing Washington Center
02:01PM 39.2694 -75.7953 54° Northeast 367 422 17,000  Level Washington Center
02:02PM 39.3425 -75.6747 52° Northeast 401 461 17,000  Level Washington Center
02:03PM 39.4114 -75.5433 56° Northeast 424 488 17,000  Level Washington Center
02:04PM 39.4800 -75.4142 55° Northeast 434 499 17,000  Level Washington Center
02:05PM 39.5403 -75.2794 60° Northeast 434 499 17,000  Level Washington Center
02:07PM 39.5397 -74.9972 90° East 382 440 17,000  Level New York Center
02:08PM 39.5150 -74.8667 104° East 401 461 17,000  Level New York Center
02:09PM 39.4847 -74.7169 105° East 412 474 17,000  Level New York Center
02:10PM 39.4731 -74.5683 96° East 412 474 17,000  Level New York Center
02:11PM 39.5422 -74.4214 59° Northeast 419 482 17,000  Level New York Center
02:12PM 39.6108 -74.2928 55° Northeast 419 482 17,000 -540 Level New York Center
02:13PM 39.6747 -74.1772 54° Northeast 433 498 16,000 -1,500 Descending New York Center
02:14PM 39.7631 -74.0736 42° Northeast 428 493 14,100 -2,100 Descending New York Center
02:15PM 39.8617 -73.9728 38° Northeast 416 479 11,900 -1,560 Descending New York Center
02:16PM 39.9572 -73.9067 28° Northeast 395 455 11,000 -480 Descending New York Center
02:17PM 40.0358 -73.8506 29° Northeast 368 423 11,000 -840 Level New York Center
02:18PM 40.1108 -73.7725 39° Northeast 326 375 9,400 -1,800 Descending New York Center
02:18PM 40.1500 -73.7333 37° Northeast 308 354 8,200 -1,980 Descending New York TRACON
02:19PM 40.2167 -73.6667 37° Northeast 288 331 6,200 -1,920 Descending New York TRACON
02:20PM 40.2667 -73.7000 333° Northwest 254 292 4,400 -1,140 Descending New York TRACON
02:21PM 40.3000 -73.7833 298° West 249 287 4,000 -240 Descending New York TRACON
02:22PM 40.3333 -73.8667 298° West 255 293 4,000  Level New York TRACON
02:23PM 40.3833 -73.9167 323° Northwest 261 300 4,000 -120 Level New York TRACON
02:24PM 40.4500 -73.9000 11° North 265 305 3,800 -720 Descending New York TRACON
02:25PM 40.5167 -73.8667 21° North 235 270 2,600 -1,200 Descending New York TRACON
02:26PM 40.5667 -73.8167 37° Northeast 203 234 1,500 -1,020 Descending New York TRACON
02:27PM 40.6000 -73.8000 21° North 156 180 700 -900 Descending New York TRACON